Klamath Falls Airport
KLMT : now visible

Airfield :











YOU CAN JOIN US ON...

 
LOGIN :

Register | Disclaimer

   EN    FR    IT 

 









Legend :    VFR   Marginal VFR   IFR   Intensive IFR   Very Intensive IFR
Visi :
Ceiling :
>= 8 km
>= 3000ft
5 to 8 km
1000 to 3000 ft
1500m to 5 km
500 to 1000 ft
800 to 1500m
200 to 500 ft
< 800m
< 200 ft
Symbols :   Thunderstorms  Fog  Heavy snow  Heavy precipitations  Wind > 20 kt






- Airport Elevation : 4095 ft
- IATA code : LMT


KLMT - Klamath Falls

CURRENT METAR :
  • 292253Z 33010G15KT 10SM CLR 18/00 A3025 RMK AO2 SLP230 T01780000

EXPIRED METARs :
  • 292153Z VRB04KT 10SM CLR 17/01 A3027 RMK AO2 SLP235 T01720006
  • 292053Z 31005G16KT 10SM CLR 16/00 A3028 RMK AO2 SLP239 T01610000 58005
  • 291953Z 36005KT 10SM CLR 16/M01 A3029 RMK AO2 SLP241 T01561011
  • 291853Z VRB05KT 10SM CLR 14/M02 A3029 RMK AO2 SLP240 T01391017

TAF KLMT
Valid from the 29 at 23:00 until the 31 at 00:00 UTC


292329Z 2923/3024 32012G18KT P6SM SKC
FM300200 32015KT P6SM SKC
FM300600 33004KT P6SM SKC
KZSE FIR / North America



MET'MAP, your aeronautical weather chart ! - Copyright ORBIFLY December 2007 - Disclaimer

ORBIFLY MET'MAP TEAM :

Programming & Development : Alexandra Zaïnal
Original concept : Baudouin d'Aumeries
Technical & hardware support : Manuel Goepfert
Assistance : Marc-Olivier Méhu




SOURCES & CREDITS :

   NOAA       Earth
Advisory